Timeline UpdatesTrip UpdatesNews PostsPvt PostsTravel TipsAdmin PostsConv PostsFollowed PostsChat RequestsBlog PostsPNR Posts

Disclaimer
Search
 
 
Tue Sep 2, 2014 17:17:20 ISTHomeTrainsΣChainsAtlasPNRForumGalleryNewsFAQTripsMembersLoginFeedback
Latest...
Change in timings ex - Originating and Terminating Station ex 01.09.2014
Sun Aug 31, 2014 (07:08AM)
⇐ Return Journey: Train# 15484

14083⇒15483/Sikkim Mahananda Express

OLD Time-Table. Click here to UPDATE TT
Aug 31 (7:06AM)
Change Departure Station:
Change Arrival Station:
Post a Train Travel TipPost a Train Travel Tip **new
Post a Comment/Question/Picture/VideoPost a Comment/Question/Picture/Video
Pantry/Catering
✓ Pantry Car Avbl
✓ Catering Avbl
RSA - Rake Sharing
Rake/Coach Composition
LOCO-SLR-GS-GS-GS-AB-B1-PC-S11-S10-S9-S8-S7-S6-S5-S4-S3-S2-S1-GS-GS-GS-SLR
Loco
SGUJ WDP-4 (APDJ to PNBE), GZB/MGS WAP-4 (PNBE to DLI)
News    PNR    Forum    Time-Table    Availability    Fare Chart    Map    Arr/Dep History    Trips    Gallery    ΣChains    X/O    Timeline    
Travel Time: 10h 15m    16 halts    Distance: 435 km    Avg Speed: 42 km/hr
Type: Mail/Express
Zone: NFR/Northeast Frontier
Departs @ 12:25
Platform# 5
SMTWTFS
Kanpur Central/CNB 
Arrives @ 22:40
Platform# 11
SMTWTFS
Old Delhi Junction/DLI 

16 halts. 64 intermediate Stations between Kanpur Central and Old Delhi Junction

Show ALL intermediate Stations  

#CodeStation NameX/OArrivesAvgDepartsAvgHaltPFDay#KmSpeedElevZoneAddress
1APDJAlipur Duar Junction (3)  -09:50-11-1216.47053mNFRDist - Alipurduar, West Bengal
2HSAHasimara (3)X  10:20-10:22-2m--1-1181.663123mNFRDist - Alipurduar, West Bengal
3DLODalgaon (3)X  10:46-10:47-1m11-1156.338 NFRDist : Alipurduar, West Bengal
4BNVBinnaguri (3)  11:01-11:02-1m--1-1147.365132mNFRDist : jalpaiguri, West Bengal
5NMZNew Mal Junction (3)  11:43-11:48-5m--1-1103.043161mNFRDist - Jalpaiguri, West Bengal
6SGUJSiliguri Junction (5)X  12:55-13:00-5m--1-1055.212120mNFRDist-Darjeeling Siliguri-734001, West Bengal
7NJPNew Jalpaiguri Junction (8)X  13:35-13:55-20m31-1047.977114mNFRCity-Siliguri . Dist-Jalpaiguri, West Bengal
8AUBAluabari Road (2)  14:39-14:41-2m21-991.2630mNFRDist - uttar Dinajpur, West Bengal
9KNEKishanGanj (3)  15:10-15:15-5m21-960.67152mNFRKishanganj, Bihar
10DLKDalkhola (3)X  15:39-15:40-1m101-932.15844mNFRDalkola, West Bengal
11BOEBarsoi Junction (3)X  16:10-16:12-2m--1-903.05337mNFRdist- katihar, Bihar
12AZRAzamnagar Road (3)X  16:27-16:28-1m--1-889.73034mNFRAzamnagar, Bihar
13LAVLabha (2)  17:10-17:11-1m11-868.61529mNFRDist : Katihar, Bihar
14KIRKatihar Junction (7)X  18:45-19:00-15m51-845.84635mNFRKatihar 854105, Bihar
15SMOSemapurX19:15-19:16-1m--1-834.36535mECRKatihar, Bihar
16CRRKaragola Road  19:26-19:27-1m--1-823.57836mECRLachhmipur, Bihar
17KUEKurselaX  19:40-19:41-1m--1-806.64831mECRNH 31, Bihar
18NNANaugachia (3)  20:04-20:05-1m--1-788.06437mECRBhagalpur, Bihar
19THBThana Bihpur Junction (3)  20:20-20:21-1m--1-772.15139mECRThana Bihpur, Bihar
20NNRNarayanpur (2)  20:30-20:31-1m--1-764.55439mECRNarayanpur, Bihar
21PSRPasraha (3)  20:44-20:45-1m--1-752.95341mECRPasraha, Bihar
22MSKMahes Khunt (2)  20:59-21:00-1m--1-740.55737mECRMaheshkhunt, Bihar
23MNEMansi Junction (4)X  21:11-21:12-1m--1-730.13343mECRMansi, Bihar
24KGGKhagaria Junction (3)X  21:28-21:29-1m--1-721.36243mECRKhagaria, Bihar
25SKJSahibpur Kamal Junction (2)  21:41-21:42-1m--1-708.94241mECRShahpur Kamal, Bihar
26LKNLakhminia (3)X  21:56-21:57-1m--1-699.23645mECRBegusarai, Bihar
27BGSBegusarai (3)  22:27-22:28-1m--1-681.42246mECRBegusarai, Bihar
28BJUBarauni Junction (9)X  23:05-23:10-5m11-668.02849mECRBegusarai, Bihar
29MKAMokama Junction (4)  23:54-23:56-2m31-647.38848mECRPatna, Bihar
30BKPBakhtiyarpur Junction (5)X  00:26-00:28-2m--2-603.24751mECRPatna, Bihar
31PNBEPatna Junction (10)X  01:25-01:50-25m42-558.03557mECRPatna 800001, Bihar
32DNRDanapur (5)  02:06-02:08-2m--2-548.79158mECRKhagaul, Bihar
33ARAAra Junction (3)X  02:34-02:36-2m--2-509.17163mECRarrah( 06182-233411), Bihar
34BXRBuxar (3)X  03:34-03:36-2m--2-440.64767mECRBuxar, Bihar
35MGSMughal Sarai Junction (8)  05:35-05:45-10m42-346.74583mECRMughalsarai 232101, Uttar Pradesh
36MZPMirzapur (3)X  07:09-07:10-1m--2-283.54088mNCRMirzapur, Uttar Pradesh
37BDLVindhyachal (3)  07:21-07:22-1m--2-276.27788mNCRMirzapur, Uttar Pradesh
38NYNNaini Junction (4)  08:20-08:22-2m22-201.42498mNCRAllahabad, Uttar Pradesh
39ALDAllahabad Junction (10)XOO  08:40-08:55-15m32-194.364100mNCRAllahabad 211003, Uttar Pradesh
40FTPFatehpur (3)  10:44-10:45-1m--2-77.652120mNCRFatehpur, Uttar Pradesh
41CNB»Kanpur Central (10)»X  12:15-12:25-10m520.029128mNCRKANPUR-208 001, Uttar Pradesh
42PNKPanki (3)XO  12:49-12:50-1m--211.537129mNCRKANPUR-208 020, Uttar Pradesh
43RURARura (4)  13:43-13:44-1m--244.357137mNCRJhinjhak, Uttar Pradesh
44JJKJhinjhak (3)  14:04-14:05-1m3263.470140mNCRAuraiya, Uttar Pradesh
45PHDPhaphund (4)  14:22-14:23-1m--283.263146mNCRdist. Auraiya, Uttar Pradesh
46ULDAchalda (3)X  14:39-14:40-1m--2100.065147mNCRDist. Auraiya(05688-1072), Uttar Pradesh
47BNTBharthana (3)X  14:58-14:59-1m--2119.552147mNCRBharthana, Uttar Pradesh
48ETWEtawah (5)  15:22-15:23-1m22139.474154mNCRDistt. Etawah, Uttar Pradesh
49SKBShikohabad Junction (4)  16:08-16:09-1m32194.857166mNCRDistrict Firozabad, Uttar Pradesh
50FZDFirozabad (4)X  16:30-16:31-1m32214.616164mNCRFirozabad, Uttar Pradesh
51TDLTundla Junction (5)XO  17:35-17:45-10m22231.270167mNCRDistt.Firozabad, Uttar Pradesh
52JLSJalesar Road (1)X  18:09-18:10-1m12259.155172mNCRMDR 106W, Uttar Pradesh
53HRSHathras Junction (3)X  18:32-18:33-1m--2279.282183mNCRMahamaya Nagar(05722-242803), Uttar Pradesh
54ALJNAligarh Junction (4)X  18:55-19:00-5m22309.349192mNCRAligarh, Uttar Pradesh
55KRJKhurja Junction (4)X  19:53-19:58-5m--2352.835199mNCRBulandshahr, Uttar Pradesh
56GZBGhaziabad Junction (6)XO  21:45-21:47-2m32415.548217mNRGhaziabad, Uttar Pradesh
57DSAShahdara Junction (4)  22:04-22:05-1m--2429.111212mNRCircular Rd, Delhi NCT
58DLI•Old Delhi Junction (16)•  22:40--112435.4-219mNRNear Chandni Chowk Metro Station, Delhi NCT
Scroll to Top
Scroll to Bottom